Time;durP1;ratioP1;P1;durP2;ratioP2;P2;SDS_P1;SDS_P2;PMS_P1;PMS_P2;Temp;Humidity;BMP_temperature;BMP_pressure;BME280_temperature;BME280_humidity;BME280_pressure;Samples;Min_cycle;Max_cycle;Signal;HPM_P1;HPM_P2
2022/09/04 00:07:17;;;;;;;16.10;12.00;;;;;;;9.60;72.64;99012.77;432694;1270;108841;-41
2022/09/04 00:17:22;;;;;;;21.10;11.70;;;;;;;9.52;73.14;99007.89;432972;1270;98029;-40
2022/09/04 00:27:30;;;;;;;21.30;9.90;;;;;;;9.66;73.63;99001.86;432679;1270;108779;-41
2022/09/04 00:37:43;;;;;;;15.70;8.30;;;;;;;9.80;73.35;99003.94;432526;1271;99230;-41
2022/09/04 00:48:11;;;;;;;10.20;7.20;;;;;;;9.81;73.74;98992.40;432306;1271;112508;-43
2022/09/04 00:58:34;;;;;;;10.50;7.60;;;;;;;10.07;74.13;98989.98;432357;1270;108225;-42
2022/09/04 01:08:54;;;;;;;9.90;7.40;;;;;;;10.14;74.30;98996.77;432393;1271;98377;-42
2022/09/04 01:19:11;;;;;;;11.30;7.10;;;;;;;10.36;74.62;99001.52;433023;1260;108743;-41
2022/09/04 01:29:18;;;;;;;11.20;6.50;;;;;;;10.49;74.77;99000.98;432465;1270;99368;-42
2022/09/04 01:39:30;;;;;;;10.90;6.10;;;;;;;10.60;74.85;99018.73;432558;1270;111735;-42
2022/09/04 01:49:41;;;;;;;10.10;5.70;;;;;;;10.65;75.28;99023.95;432367;1270;108400;-42
2022/09/04 01:59:50;;;;;;;9.70;6.50;;;;;;;10.74;75.30;99021.48;432971;1271;99264;-41
2022/09/04 02:10:04;;;;;;;8.20;6.30;;;;;;;10.77;75.38;99018.85;432938;1270;109695;-42
2022/09/04 02:20:12;;;;;;;7.40;5.70;;;;;;;10.77;75.63;99020.52;432653;1270;98521;-40
2022/09/04 02:30:21;;;;;;;8.20;5.90;;;;;;;10.76;75.85;99016.14;432613;1270;111369;-40
2022/09/04 02:40:26;;;;;;;;;;;;;;;10.66;75.91;99030.01;432503;1270;108783;-41
2022/09/04 02:50:37;;;;;;;10.00;6.70;;;;;;;10.61;76.22;99032.33;432814;1269;99230;-41
2022/09/04 03:00:46;;;;;;;10.20;5.70;;;;;;;10.61;76.31;99031.96;433060;1270;108931;-41
2022/09/04 03:10:51;;;;;;;8.70;6.60;;;;;;;10.45;76.59;99027.45;432230;1270;99272;-41
2022/09/04 03:20:57;;;;;;;9.80;7.50;;;;;;;10.40;76.88;99024.48;432595;1270;112500;-41
2022/09/04 03:31:02;;;;;;;8.50;7.70;;;;;;;10.32;77.11;99024.20;432790;1270;108753;-41
2022/09/04 03:41:13;;;;;;;9.30;7.00;;;;;;;10.21;77.58;99028.30;432230;1270;99241;-42
2022/09/04 03:51:29;;;;;;;11.00;7.80;;;;;;;10.15;77.80;99034.33;432235;1270;108998;-42
2022/09/04 04:01:41;;;;;;;12.70;9.50;;;;;;;10.10;77.97;99035.15;432592;1270;97947;-42
2022/09/04 04:11:59;;;;;;;13.30;9.20;;;;;;;10.07;78.36;99030.70;432861;1270;112446;-42
2022/09/04 04:22:09;;;;;;;12.00;9.40;;;;;;;10.21;78.54;99036.52;432364;1270;107835;-39
2022/09/04 04:32:26;;;;;;;10.70;8.60;;;;;;;10.39;78.95;99038.70;432696;1270;98031;-42
2022/09/04 04:42:35;;;;;;;11.90;8.40;;;;;;;10.56;79.24;99047.96;432627;1270;108884;-42
2022/09/04 04:52:44;;;;;;;10.90;7.20;;;;;;;10.70;79.13;99056.75;432699;1269;98886;-42
2022/09/04 05:02:53;;;;;;;10.10;8.50;;;;;;;10.87;78.98;99056.02;433050;1270;111772;-42
2022/09/04 05:13:10;;;;;;;14.90;9.80;;;;;;;11.12;79.10;99056.73;432422;1270;109083;-42
2022/09/04 05:33:34;;;;;;;12.80;9.00;;;;;;;13.21;78.64;99065.58;432560;1270;108793;-42
2022/09/04 05:43:54;;;;;;;7.80;6.60;;;;;;;13.97;77.61;99069.90;432196;1270;98023;-41
2022/09/04 05:54:33;;;;;;;10.00;8.20;;;;;;;14.31;76.81;99078.21;432806;1270;112421;-41
2022/09/04 06:05:03;;;;;;;7.50;6.70;;;;;;;14.29;76.21;99088.15;432654;1269;108837;-42
2022/09/04 06:15:25;;;;;;;7.20;6.10;;;;;;;14.29;75.93;99102.56;431200;1270;1668189;-41
2022/09/04 06:26:05;;;;;;;7.70;6.10;;;;;;;15.37;76.14;99110.98;433188;1270;109011;-41
2022/09/04 06:36:45;;;;;;;6.60;3.90;;;;;;;15.87;74.61;99105.58;432562;1270;99989;-43
2022/09/04 06:47:04;;;;;;;5.10;4.60;;;;;;;16.11;73.15;99094.82;431895;1270;112512;-43
2022/09/04 06:57:17;;;;;;;4.80;4.30;;;;;;;16.92;73.43;99103.86;432956;1270;108825;-41
2022/09/04 07:07:34;;;;;;;14.10;4.80;;;;;;;17.73;71.08;99111.00;432413;1270;99228;-40
2022/09/04 07:17:46;;;;;;;6.10;4.00;;;;;;;17.92;69.94;99117.20;433122;1270;109405;-39
2022/09/04 07:28:07;;;;;;;2.90;2.70;;;;;;;17.62;68.38;99127.00;432490;1270;99365;-40
2022/09/04 07:38:15;;;;;;;4.30;3.90;;;;;;;16.76;68.19;99137.25;432359;1270;112472;-40
2022/09/04 07:48:22;;;;;;;4.70;3.50;;;;;;;16.30;68.72;99152.83;432003;1269;108649;-41
2022/09/04 07:58:49;;;;;;;4.10;3.70;;;;;;;16.09;69.32;99156.53;432901;1269;99242;-42
2022/09/04 08:09:16;;;;;;;4.80;3.30;;;;;;;15.91;69.60;99169.48;433007;1270;106971;-40
2022/09/04 08:19:34;;;;;;;2.70;2.50;;;;;;;16.01;70.08;99185.57;432305;1270;99273;-42
2022/09/04 08:40:02;;;;;;;4.50;3.90;;;;;;;16.60;69.70;99197.16;432498;1269;109005;-41
2022/09/04 08:50:26;;;;;;;5.40;3.80;;;;;;;17.23;69.44;99205.09;432940;1268;99228;-39
2022/09/04 09:00:31;;;;;;;4.30;4.00;;;;;;;17.98;67.85;99206.05;433171;1270;108400;-40
2022/09/04 09:10:55;;;;;;;3.70;2.80;;;;;;;18.23;67.26;99205.08;432455;1270;98413;-41
2022/09/04 09:21:06;;;;;;;3.50;2.80;;;;;;;18.97;66.52;99202.86;432662;1270;112642;-40
2022/09/04 09:31:43;;;;;;;4.90;3.60;;;;;;;19.22;64.54;99208.12;432940;1270;108806;-40
2022/09/04 09:42:14;;;;;;;3.50;2.40;;;;;;;18.68;63.37;99217.23;433256;1269;99261;-41
2022/09/04 09:52:43;;;;;;;2.80;2.60;;;;;;;18.35;63.57;99214.84;433238;1270;108801;-42
2022/09/04 10:03:04;;;;;;;;;;;;;;;18.55;62.98;99227.40;432406;1270;99292;-42
2022/09/04 10:13:35;;;;;;;9.00;4.10;;;;;;;18.38;62.82;99237.27;432341;1270;112483;-41
2022/09/04 10:23:57;;;;;;;3.20;2.80;;;;;;;18.42;62.77;99226.68;432222;1270;108674;-42
2022/09/04 10:34:15;;;;;;;3.50;3.10;;;;;;;18.75;62.44;99227.51;432678;1270;98018;-40
2022/09/04 10:44:45;;;;;;;5.80;4.40;;;;;;;19.30;61.47;99232.83;432549;1270;107401;-40
2022/09/04 10:55:25;;;;;;;4.20;3.70;;;;;;;19.50;61.59;99231.23;432550;1270;98983;-40
2022/09/04 11:05:40;;;;;;;3.60;3.10;;;;;;;19.78;61.18;99232.33;433441;1269;112689;-39
2022/09/04 11:15:51;;;;;;;4.30;3.70;;;;;;;19.83;61.03;99232.09;432197;1270;107824;-40
2022/09/04 11:26:46;;;;;;;4.40;4.00;;;;;;;19.31;61.09;99236.25;432509;1270;98671;-42
2022/09/04 11:37:04;;;;;;;4.90;4.00;;;;;;;19.04;61.56;99238.55;430997;1276;108847;-39
2022/09/04 11:47:46;;;;;;;5.40;3.90;;;;;;;18.98;61.34;99243.55;430901;1276;98220;-40
2022/09/04 11:57:56;;;;;;;4.30;3.90;;;;;;;19.13;61.61;99240.42;431043;1276;113489;-39
2022/09/04 12:08:19;;;;;;;4.10;3.70;;;;;;;19.25;61.50;99232.95;432169;1269;108818;-41
2022/09/04 12:18:54;;;;;;;4.10;3.70;;;;;;;19.54;61.18;99223.88;433272;1270;99161;-41
2022/09/04 12:29:24;;;;;;;4.80;4.00;;;;;;;19.77;60.88;99230.02;432414;1270;108705;-41
2022/09/04 12:39:55;;;;;;;4.10;3.70;;;;;;;20.23;60.64;99226.61;432468;1270;99929;-41
2022/09/04 12:50:18;;;;;;;4.70;3.30;;;;;;;20.26;59.70;99218.22;433258;1270;112571;-40
2022/09/04 13:00:37;;;;;;;4.70;3.30;;;;;;;20.28;59.62;99225.19;433030;1270;108724;-41
2022/09/04 13:10:56;;;;;;;3.40;3.10;;;;;;;20.24;59.41;99218.06;432430;1270;99229;-39
2022/09/04 13:31:32;;;;;;;3.40;3.00;;;;;;;19.94;59.26;99224.59;432869;1270;99779;-41
2022/09/04 13:52:10;;;;;;;3.90;3.10;;;;;;;19.94;59.34;99225.13;433363;1270;108767;-40
2022/09/04 14:13:03;;;;;;;3.70;3.30;;;;;;;19.83;59.22;99244.60;433206;1270;108103;-40
2022/09/04 14:23:20;;;;;;;4.50;3.00;;;;;;;19.99;59.24;99246.67;432734;1270;98834;-42
2022/09/04 14:33:26;;;;;;;3.90;3.10;;;;;;;20.05;59.41;99251.20;433027;1270;112421;-40
2022/09/04 14:43:41;;;;;;;3.50;3.20;;;;;;;19.88;59.36;99262.72;433023;1270;108857;-41
2022/09/04 14:53:46;;;;;;;3.50;3.20;;;;;;;19.79;59.40;99261.57;433045;1269;99282;-41
2022/09/04 15:03:54;;;;;;;5.50;3.20;;;;;;;19.70;59.47;99258.83;432970;1270;108905;-42
2022/09/04 15:24:15;;;;;;;3.00;2.70;;;;;;;19.59;59.61;99269.95;433547;1270;112453;-42
2022/09/04 15:34:25;;;;;;;3.40;2.60;;;;;;;19.47;59.45;99269.38;433092;1270;108702;-42
2022/09/04 15:44:39;;;;;;;2.90;2.60;;;;;;;19.41;59.66;99260.75;432976;1270;98849;-42
2022/09/04 15:55:04;;;;;;;2.80;2.00;;;;;;;19.34;59.91;99266.06;433078;1270;108948;-41
2022/09/04 16:05:13;;;;;;;2.90;2.60;;;;;;;19.28;60.07;99273.64;432156;1270;98635;-42
2022/09/04 16:15:20;;;;;;;3.10;2.70;;;;;;;19.16;60.33;99273.39;432482;1270;112438;-42
2022/09/04 16:25:27;;;;;;;3.10;2.50;;;;;;;18.97;60.47;99278.17;433074;1270;108595;-42
2022/09/04 16:35:33;;;;;;;3.50;3.00;;;;;;;18.82;60.73;99280.64;432858;1270;98641;-42
2022/09/04 16:45:38;;;;;;;2.80;2.50;;;;;;;18.73;61.02;99286.59;433198;1270;108643;-43
2022/09/04 16:55:47;;;;;;;3.80;3.20;;;;;;;18.59;61.34;99290.23;433266;1270;99280;-40
2022/09/04 17:16:09;;;;;;;5.80;4.00;;;;;;;18.21;62.15;99294.64;433092;1270;108954;-40
2022/09/04 17:26:19;;;;;;;5.70;3.90;;;;;;;18.00;62.45;99307.09;433214;1270;98263;-41
2022/09/04 17:36:52;;;;;;;7.00;3.00;;;;;;;17.85;62.87;99321.14;433308;1271;109102;-42
2022/09/04 17:47:23;;;;;;;7.30;3.90;;;;;;;17.71;63.37;99337.38;432303;1269;99272;-42
2022/09/04 17:57:36;;;;;;;6.50;4.20;;;;;;;17.58;63.89;99349.30;432477;1270;112609;-42
2022/09/04 18:07:48;;;;;;;5.20;4.20;;;;;;;17.38;64.03;99366.71;432036;1270;1670794;-42
2022/09/04 18:18:23;;;;;;;5.00;3.50;;;;;;;17.26;64.21;99374.15;432348;1270;99271;-43
2022/09/04 18:28:33;;;;;;;4.30;3.90;;;;;;;17.23;64.60;99392.61;432616;1270;109044;-40
2022/09/04 18:38:40;;;;;;;6.70;4.30;;;;;;;17.18;64.87;99402.56;433312;1271;98834;-39
2022/09/04 18:48:48;;;;;;;10.30;5.00;;;;;;;17.00;64.74;99408.82;432805;1269;112729;-40
2022/09/04 18:59:17;;;;;;;5.10;4.60;;;;;;;16.83;65.14;99415.41;433251;1270;109153;-39
2022/09/04 19:09:25;;;;;;;;;;;;;;;16.70;64.98;99419.71;433336;1269;99237;-40
2022/09/04 19:19:37;;;;;;;5.50;4.90;;;;;;;16.59;65.31;99422.39;432502;1270;108800;-39
2022/09/04 19:29:44;;;;;;;6.60;5.90;;;;;;;16.46;65.71;99424.27;433238;1270;98397;-40
2022/09/04 19:39:57;;;;;;;7.80;6.00;;;;;;;16.30;65.94;99432.65;433159;1270;112318;-39
2022/09/04 19:50:30;;;;;;;12.10;6.60;;;;;;;16.07;66.10;99435.76;433488;1270;108886;-40
2022/09/04 20:01:01;;;;;;;8.00;5.70;;;;;;;15.84;66.29;99441.56;433671;1270;99241;-40
2022/09/04 20:11:14;;;;;;;7.60;6.00;;;;;;;15.58;66.38;99441.78;433389;1270;109527;-40
2022/09/04 20:31:48;;;;;;;6.70;6.00;;;;;;;15.10;67.37;99445.75;432566;1271;112324;-39
2022/09/04 20:52:01;;;;;;;9.30;6.60;;;;;;;14.60;68.00;99458.32;433216;1269;99229;-41
2022/09/04 21:02:46;;;;;;;7.30;6.50;;;;;;;14.42;68.46;99465.48;432800;1270;109038;-41
2022/09/04 21:13:22;;;;;;;7.30;6.60;;;;;;;14.34;68.74;99473.52;432815;1270;99335;-41
2022/09/04 21:24:09;;;;;;;9.20;6.60;;;;;;;14.23;69.17;99480.21;432494;1270;112342;-41
2022/09/04 21:34:30;;;;;;;11.70;7.10;;;;;;;14.13;69.38;99486.96;432063;1270;109740;-40
2022/09/04 21:45:19;;;;;;;6.80;6.20;;;;;;;13.98;69.77;99497.69;432427;1270;98882;-40
2022/09/04 21:55:29;;;;;;;8.70;6.60;;;;;;;13.88;70.07;99506.25;432374;1270;108891;-40
2022/09/04 22:06:02;;;;;;;8.30;7.00;;;;;;;13.64;70.32;99503.88;432579;1271;98860;-41
2022/09/04 22:16:12;;;;;;;8.70;7.20;;;;;;;13.47;70.74;99500.95;432858;1270;113033;-42
2022/09/04 22:26:35;;;;;;;;;;;;;;;13.36;71.02;99498.12;432394;1270;107555;-41
2022/09/04 22:37:10;;;;;;;7.60;6.90;;;;;;;13.31;71.13;99506.86;432507;1270;97947;-42
2022/09/04 22:47:32;;;;;;;8.50;7.60;;;;;;;13.17;71.47;99511.31;432316;1270;108805;-41
2022/09/04 22:57:49;;;;;;;8.50;7.00;;;;;;;13.09;71.56;99517.60;432425;1270;99232;-41
2022/09/04 23:08:15;;;;;;;9.70;6.40;;;;;;;12.88;71.57;99519.89;432762;1270;112358;-40
2022/09/04 23:18:50;;;;;;;9.50;8.50;;;;;;;12.72;71.98;99524.52;432229;1269;108978;-40
2022/09/04 23:40:03;;;;;;;11.50;8.00;;;;;;;11.99;71.92;99525.98;432505;1268;108573;-40
2022/09/04 23:50:29;;;;;;;8.00;6.50;;;;;;;11.86;72.42;99528.70;432715;1269;98020;-40
